sensor_id;sensor_type;location;lat;lon;timestamp;P1;durP1;ratioP1;P2;durP2;ratioP2
6243;SDS011;3155;49.940;8.450;2023-03-01T00:01:18;1.20;;;1.10;;
6243;SDS011;3155;49.940;8.450;2023-03-01T00:03:49;2.05;;;1.35;;
6243;SDS011;3155;49.940;8.450;2023-03-01T00:06:19;1.58;;;1.25;;
6243;SDS011;3155;49.940;8.450;2023-03-01T00:08:46;1.10;;;0.98;;
6243;SDS011;3155;49.940;8.450;2023-03-01T00:11:27;1.70;;;1.10;;
6243;SDS011;3155;49.940;8.450;2023-03-01T00:13:57;1.42;;;1.23;;
6243;SDS011;3155;49.940;8.450;2023-03-01T00:16:28;0.88;;;0.88;;
6243;SDS011;3155;49.940;8.450;2023-03-01T00:18:57;2.75;;;1.35;;
6243;SDS011;3155;49.940;8.450;2023-03-01T00:21:27;2.25;;;0.93;;
6243;SDS011;3155;49.940;8.450;2023-03-01T00:24:03;1.38;;;1.27;;
6243;SDS011;3155;49.940;8.450;2023-03-01T00:26:30;2.45;;;1.40;;
6243;SDS011;3155;49.940;8.450;2023-03-01T00:29:00;0.60;;;0.55;;
6243;SDS011;3155;49.940;8.450;2023-03-01T00:31:28;1.43;;;1.07;;
6243;SDS011;3155;49.940;8.450;2023-03-01T00:33:57;1.73;;;1.60;;
6243;SDS011;3155;49.940;8.450;2023-03-01T00:36:29;1.38;;;1.23;;
6243;SDS011;3155;49.940;8.450;2023-03-01T00:38:59;1.67;;;1.58;;
6243;SDS011;3155;49.940;8.450;2023-03-01T00:41:26;1.17;;;0.98;;
6243;SDS011;3155;49.940;8.450;2023-03-01T00:43:53;2.70;;;1.60;;
6243;SDS011;3155;49.940;8.450;2023-03-01T00:46:21;0.95;;;0.95;;
6243;SDS011;3155;49.940;8.450;2023-03-01T00:48:51;1.45;;;1.27;;
6243;SDS011;3155;49.940;8.450;2023-03-01T00:51:24;1.40;;;1.35;;
6243;SDS011;3155;49.940;8.450;2023-03-01T00:53:56;0.85;;;0.85;;
6243;SDS011;3155;49.940;8.450;2023-03-01T00:56:26;2.70;;;1.10;;
6243;SDS011;3155;49.940;8.450;2023-03-01T00:58:53;1.05;;;1.05;;
6243;SDS011;3155;49.940;8.450;2023-03-01T01:01:21;2.17;;;1.35;;
6243;SDS011;3155;49.940;8.450;2023-03-01T01:03:52;1.83;;;1.73;;
6243;SDS011;3155;49.940;8.450;2023-03-01T01:06:28;2.60;;;1.20;;
6243;SDS011;3155;49.940;8.450;2023-03-01T01:09:00;1.33;;;1.10;;
6243;SDS011;3155;49.940;8.450;2023-03-01T01:11:28;2.78;;;1.20;;
6243;SDS011;3155;49.940;8.450;2023-03-01T01:13:57;1.10;;;1.10;;
6243;SDS011;3155;49.940;8.450;2023-03-01T01:16:25;1.00;;;0.80;;
6243;SDS011;3155;49.940;8.450;2023-03-01T01:18:55;1.33;;;1.17;;
6243;SDS011;3155;49.940;8.450;2023-03-01T01:21:22;2.30;;;0.95;;
6243;SDS011;3155;49.940;8.450;2023-03-01T01:23:50;2.90;;;1.30;;
6243;SDS011;3155;49.940;8.450;2023-03-01T01:26:28;1.02;;;0.80;;
6243;SDS011;3155;49.940;8.450;2023-03-01T01:28:57;2.63;;;1.50;;
6243;SDS011;3155;49.940;8.450;2023-03-01T01:31:31;1.55;;;1.15;;
6243;SDS011;3155;49.940;8.450;2023-03-01T01:34:00;1.75;;;1.45;;
6243;SDS011;3155;49.940;8.450;2023-03-01T01:36:28;1.85;;;1.23;;
6243;SDS011;3155;49.940;8.450;2023-03-01T01:38:56;0.95;;;0.95;;
6243;SDS011;3155;49.940;8.450;2023-03-01T01:41:27;1.60;;;1.50;;
6243;SDS011;3155;49.940;8.450;2023-03-01T01:46:57;2.78;;;1.30;;
6243;SDS011;3155;49.940;8.450;2023-03-01T01:49:45;1.97;;;1.30;;
6243;SDS011;3155;49.940;8.450;2023-03-01T01:52:19;1.55;;;1.42;;
6243;SDS011;3155;49.940;8.450;2023-03-01T01:54:51;1.37;;;0.87;;
6243;SDS011;3155;49.940;8.450;2023-03-01T01:57:24;2.05;;;1.05;;
6243;SDS011;3155;49.940;8.450;2023-03-01T01:59:54;0.57;;;0.57;;
6243;SDS011;3155;49.940;8.450;2023-03-01T02:02:25;1.60;;;1.50;;
6243;SDS011;3155;49.940;8.450;2023-03-01T02:04:53;1.50;;;0.93;;
6243;SDS011;3155;49.940;8.450;2023-03-01T02:07:29;1.27;;;1.08;;
6243;SDS011;3155;49.940;8.450;2023-03-01T02:09:56;1.20;;;1.10;;
6243;SDS011;3155;49.940;8.450;2023-03-01T02:12:24;2.40;;;1.50;;
6243;SDS011;3155;49.940;8.450;2023-03-01T02:14:54;1.63;;;0.77;;
6243;SDS011;3155;49.940;8.450;2023-03-01T02:17:20;1.38;;;0.82;;
6243;SDS011;3155;49.940;8.450;2023-03-01T02:22:25;1.30;;;1.20;;
6243;SDS011;3155;49.940;8.450;2023-03-01T02:27:22;1.52;;;1.08;;
6243;SDS011;3155;49.940;8.450;2023-03-01T02:29:54;0.93;;;0.93;;
6243;SDS011;3155;49.940;8.450;2023-03-01T02:32:22;3.08;;;1.50;;
6243;SDS011;3155;49.940;8.450;2023-03-01T02:34:54;1.25;;;1.25;;
6243;SDS011;3155;49.940;8.450;2023-03-01T02:37:22;1.58;;;1.20;;
6243;SDS011;3155;49.940;8.450;2023-03-01T02:40:01;0.43;;;0.43;;
6243;SDS011;3155;49.940;8.450;2023-03-01T02:42:33;1.77;;;1.37;;
6243;SDS011;3155;49.940;8.450;2023-03-01T02:45:07;1.23;;;1.13;;
6243;SDS011;3155;49.940;8.450;2023-03-01T02:47:34;1.80;;;1.70;;
6243;SDS011;3155;49.940;8.450;2023-03-01T02:50:00;1.05;;;0.95;;
6243;SDS011;3155;49.940;8.450;2023-03-01T02:57:34;1.73;;;1.67;;
6243;SDS011;3155;49.940;8.450;2023-03-01T03:00:05;1.15;;;1.13;;
6243;SDS011;3155;49.940;8.450;2023-03-01T03:02:35;1.70;;;1.52;;
6243;SDS011;3155;49.940;8.450;2023-03-01T03:05:04;1.50;;;1.42;;
6243;SDS011;3155;49.940;8.450;2023-03-01T03:07:35;1.38;;;1.27;;
6243;SDS011;3155;49.940;8.450;2023-03-01T03:10:04;5.20;;;1.52;;
6243;SDS011;3155;49.940;8.450;2023-03-01T03:12:34;1.95;;;0.77;;
6243;SDS011;3155;49.940;8.450;2023-03-01T03:15:00;3.38;;;1.15;;
6243;SDS011;3155;49.940;8.450;2023-03-01T03:17:27;2.22;;;1.30;;
6243;SDS011;3155;49.940;8.450;2023-03-01T03:19:54;2.67;;;1.60;;
6243;SDS011;3155;49.940;8.450;2023-03-01T03:22:20;2.25;;;1.42;;
6243;SDS011;3155;49.940;8.450;2023-03-01T03:24:47;1.10;;;1.00;;
6243;SDS011;3155;49.940;8.450;2023-03-01T03:27:14;1.55;;;1.23;;
6243;SDS011;3155;49.940;8.450;2023-03-01T03:29:47;1.70;;;1.10;;
6243;SDS011;3155;49.940;8.450;2023-03-01T03:32:14;3.13;;;1.42;;
6243;SDS011;3155;49.940;8.450;2023-03-01T03:34:40;3.53;;;1.70;;
6243;SDS011;3155;49.940;8.450;2023-03-01T03:37:13;1.37;;;1.37;;
6243;SDS011;3155;49.940;8.450;2023-03-01T03:40:02;2.92;;;1.42;;
6243;SDS011;3155;49.940;8.450;2023-03-01T03:42:29;1.58;;;1.48;;
6243;SDS011;3155;49.940;8.450;2023-03-01T03:44:56;1.38;;;1.27;;
6243;SDS011;3155;49.940;8.450;2023-03-01T03:47:22;1.77;;;1.40;;
6243;SDS011;3155;49.940;8.450;2023-03-01T03:49:49;2.00;;;1.45;;
6243;SDS011;3155;49.940;8.450;2023-03-01T03:52:16;1.67;;;1.58;;
6243;SDS011;3155;49.940;8.450;2023-03-01T03:54:49;1.38;;;1.27;;
6243;SDS011;3155;49.940;8.450;2023-03-01T03:57:15;0.95;;;0.95;;
6243;SDS011;3155;49.940;8.450;2023-03-01T03:59:42;2.20;;;1.55;;
6243;SDS011;3155;49.940;8.450;2023-03-01T04:02:09;2.20;;;1.00;;
6243;SDS011;3155;49.940;8.450;2023-03-01T04:04:35;1.40;;;1.08;;
6243;SDS011;3155;49.940;8.450;2023-03-01T04:07:02;1.95;;;1.40;;
6243;SDS011;3155;49.940;8.450;2023-03-01T04:09:29;5.70;;;1.67;;
6243;SDS011;3155;49.940;8.450;2023-03-01T04:11:56;3.70;;;1.25;;
6243;SDS011;3155;49.940;8.450;2023-03-01T04:14:23;2.25;;;1.45;;
6243;SDS011;3155;49.940;8.450;2023-03-01T04:16:49;2.50;;;1.38;;
6243;SDS011;3155;49.940;8.450;2023-03-01T04:19:16;2.00;;;1.83;;
6243;SDS011;3155;49.940;8.450;2023-03-01T04:21:43;3.10;;;1.85;;
6243;SDS011;3155;49.940;8.450;2023-03-01T04:24:10;1.38;;;1.30;;
6243;SDS011;3155;49.940;8.450;2023-03-01T04:26:37;2.10;;;0.98;;
6243;SDS011;3155;49.940;8.450;2023-03-01T04:29:03;1.10;;;1.10;;
6243;SDS011;3155;49.940;8.450;2023-03-01T04:31:30;2.28;;;1.42;;
6243;SDS011;3155;49.940;8.450;2023-03-01T04:33:57;1.40;;;1.30;;
6243;SDS011;3155;49.940;8.450;2023-03-01T04:36:24;4.53;;;1.73;;
6243;SDS011;3155;49.940;8.450;2023-03-01T04:38:54;2.00;;;1.70;;
6243;SDS011;3155;49.940;8.450;2023-03-01T04:41:22;1.70;;;1.60;;
6243;SDS011;3155;49.940;8.450;2023-03-01T04:43:50;5.30;;;2.05;;
6243;SDS011;3155;49.940;8.450;2023-03-01T04:46:20;1.90;;;1.73;;
6243;SDS011;3155;49.940;8.450;2023-03-01T04:48:47;1.87;;;1.40;;
6243;SDS011;3155;49.940;8.450;2023-03-01T04:51:15;1.25;;;1.17;;
6243;SDS011;3155;49.940;8.450;2023-03-01T04:53:42;0.95;;;0.93;;
6243;SDS011;3155;49.940;8.450;2023-03-01T04:56:09;2.30;;;1.35;;
6243;SDS011;3155;49.940;8.450;2023-03-01T04:58:36;3.30;;;1.40;;
6243;SDS011;3155;49.940;8.450;2023-03-01T05:01:07;1.20;;;1.20;;
6243;SDS011;3155;49.940;8.450;2023-03-01T05:03:49;1.67;;;1.60;;
6243;SDS011;3155;49.940;8.450;2023-03-01T05:06:17;5.20;;;0.90;;
6243;SDS011;3155;49.940;8.450;2023-03-01T05:08:45;2.28;;;1.05;;
6243;SDS011;3155;49.940;8.450;2023-03-01T05:11:12;3.70;;;1.33;;
6243;SDS011;3155;49.940;8.450;2023-03-01T05:13:39;1.80;;;1.67;;
6243;SDS011;3155;49.940;8.450;2023-03-01T05:16:07;1.63;;;1.50;;
6243;SDS011;3155;49.940;8.450;2023-03-01T05:18:37;2.67;;;2.00;;
6243;SDS011;3155;49.940;8.450;2023-03-01T05:21:07;1.50;;;1.13;;
6243;SDS011;3155;49.940;8.450;2023-03-01T05:23:36;1.05;;;1.05;;
6243;SDS011;3155;49.940;8.450;2023-03-01T05:26:04;2.83;;;1.47;;
6243;SDS011;3155;49.940;8.450;2023-03-01T05:28:36;2.38;;;1.50;;
6243;SDS011;3155;49.940;8.450;2023-03-01T05:31:04;1.77;;;1.42;;
6243;SDS011;3155;49.940;8.450;2023-03-01T05:33:39;1.25;;;1.15;;
6243;SDS011;3155;49.940;8.450;2023-03-01T05:36:07;1.90;;;1.80;;
6243;SDS011;3155;49.940;8.450;2023-03-01T05:38:35;1.77;;;1.52;;
6243;SDS011;3155;49.940;8.450;2023-03-01T05:41:02;4.03;;;2.03;;
6243;SDS011;3155;49.940;8.450;2023-03-01T05:43:32;2.90;;;1.40;;
6243;SDS011;3155;49.940;8.450;2023-03-01T05:46:00;3.60;;;1.10;;
6243;SDS011;3155;49.940;8.450;2023-03-01T05:48:27;0.80;;;0.80;;
6243;SDS011;3155;49.940;8.450;2023-03-01T05:50:53;1.53;;;1.43;;
6243;SDS011;3155;49.940;8.450;2023-03-01T05:53:20;1.80;;;1.70;;
6243;SDS011;3155;49.940;8.450;2023-03-01T05:55:47;2.50;;;1.73;;
6243;SDS011;3155;49.940;8.450;2023-03-01T05:58:19;1.55;;;1.27;;
6243;SDS011;3155;49.940;8.450;2023-03-01T06:00:47;1.90;;;1.42;;
6243;SDS011;3155;49.940;8.450;2023-03-01T06:03:15;4.03;;;1.33;;
6243;SDS011;3155;49.940;8.450;2023-03-01T06:05:43;5.85;;;2.35;;
6243;SDS011;3155;49.940;8.450;2023-03-01T06:08:11;2.50;;;2.20;;
6243;SDS011;3155;49.940;8.450;2023-03-01T06:10:39;2.30;;;1.30;;
6243;SDS011;3155;49.940;8.450;2023-03-01T06:13:09;2.75;;;1.67;;
6243;SDS011;3155;49.940;8.450;2023-03-01T06:15:36;1.33;;;1.23;;
6243;SDS011;3155;49.940;8.450;2023-03-01T06:18:03;2.83;;;1.70;;
6243;SDS011;3155;49.940;8.450;2023-03-01T06:20:29;3.40;;;1.50;;
6243;SDS011;3155;49.940;8.450;2023-03-01T06:22:56;1.92;;;1.73;;
6243;SDS011;3155;49.940;8.450;2023-03-01T06:25:24;2.80;;;1.60;;
6243;SDS011;3155;49.940;8.450;2023-03-01T06:27:52;2.03;;;1.90;;
6243;SDS011;3155;49.940;8.450;2023-03-01T06:30:20;1.37;;;1.17;;
6243;SDS011;3155;49.940;8.450;2023-03-01T06:32:48;1.88;;;1.67;;
6243;SDS011;3155;49.940;8.450;2023-03-01T06:35:15;3.60;;;1.95;;
6243;SDS011;3155;49.940;8.450;2023-03-01T06:37:44;2.60;;;1.83;;
6243;SDS011;3155;49.940;8.450;2023-03-01T06:40:12;2.00;;;1.67;;
6243;SDS011;3155;49.940;8.450;2023-03-01T06:42:41;5.10;;;1.63;;
6243;SDS011;3155;49.940;8.450;2023-03-01T06:45:09;1.20;;;1.20;;
6243;SDS011;3155;49.940;8.450;2023-03-01T06:47:39;3.03;;;1.67;;
6243;SDS011;3155;49.940;8.450;2023-03-01T06:50:06;1.70;;;1.60;;
6243;SDS011;3155;49.940;8.450;2023-03-01T06:52:34;1.33;;;1.27;;
6243;SDS011;3155;49.940;8.450;2023-03-01T06:55:01;2.95;;;1.75;;
6243;SDS011;3155;49.940;8.450;2023-03-01T06:57:27;1.50;;;1.40;;
6243;SDS011;3155;49.940;8.450;2023-03-01T06:59:56;1.83;;;1.73;;
6243;SDS011;3155;49.940;8.450;2023-03-01T07:02:23;1.75;;;1.42;;
6243;SDS011;3155;49.940;8.450;2023-03-01T07:04:50;3.72;;;1.75;;
6243;SDS011;3155;49.940;8.450;2023-03-01T07:07:18;1.80;;;1.70;;
6243;SDS011;3155;49.940;8.450;2023-03-01T07:09:45;2.33;;;1.60;;
6243;SDS011;3155;49.940;8.450;2023-03-01T07:12:12;2.15;;;2.00;;
6243;SDS011;3155;49.940;8.450;2023-03-01T07:14:39;2.60;;;1.65;;
6243;SDS011;3155;49.940;8.450;2023-03-01T07:17:06;3.88;;;1.95;;
6243;SDS011;3155;49.940;8.450;2023-03-01T07:19:34;3.55;;;1.17;;
6243;SDS011;3155;49.940;8.450;2023-03-01T07:22:02;1.75;;;1.23;;
6243;SDS011;3155;49.940;8.450;2023-03-01T07:24:30;1.48;;;1.10;;
6243;SDS011;3155;49.940;8.450;2023-03-01T07:26:57;1.48;;;1.38;;
6243;SDS011;3155;49.940;8.450;2023-03-01T07:29:24;3.65;;;2.40;;
6243;SDS011;3155;49.940;8.450;2023-03-01T07:31:50;3.53;;;1.35;;
6243;SDS011;3155;49.940;8.450;2023-03-01T07:34:17;1.70;;;1.60;;
6243;SDS011;3155;49.940;8.450;2023-03-01T07:36:44;1.95;;;1.67;;
6243;SDS011;3155;49.940;8.450;2023-03-01T07:39:11;2.63;;;2.17;;
6243;SDS011;3155;49.940;8.450;2023-03-01T07:41:39;3.03;;;1.70;;
6243;SDS011;3155;49.940;8.450;2023-03-01T07:44:05;2.15;;;1.80;;
6243;SDS011;3155;49.940;8.450;2023-03-01T07:46:32;2.17;;;1.83;;
6243;SDS011;3155;49.940;8.450;2023-03-01T07:48:59;4.40;;;1.92;;
6243;SDS011;3155;49.940;8.450;2023-03-01T07:51:26;3.28;;;1.90;;
6243;SDS011;3155;49.940;8.450;2023-03-01T07:53:58;6.65;;;1.83;;
6243;SDS011;3155;49.940;8.450;2023-03-01T07:56:25;2.67;;;1.80;;
6243;SDS011;3155;49.940;8.450;2023-03-01T07:58:51;3.30;;;2.03;;
6243;SDS011;3155;49.940;8.450;2023-03-01T08:01:21;1.70;;;1.60;;
6243;SDS011;3155;49.940;8.450;2023-03-01T08:03:48;3.35;;;2.17;;
6243;SDS011;3155;49.940;8.450;2023-03-01T08:06:16;2.30;;;1.95;;
6243;SDS011;3155;49.940;8.450;2023-03-01T08:08:45;2.80;;;2.50;;
6243;SDS011;3155;49.940;8.450;2023-03-01T08:11:13;2.20;;;2.08;;
6243;SDS011;3155;49.940;8.450;2023-03-01T08:13:49;2.70;;;1.45;;
6243;SDS011;3155;49.940;8.450;2023-03-01T08:16:18;3.15;;;2.17;;
6243;SDS011;3155;49.940;8.450;2023-03-01T08:18:45;5.43;;;2.42;;
6243;SDS011;3155;49.940;8.450;2023-03-01T08:21:13;2.17;;;1.98;;
6243;SDS011;3155;49.940;8.450;2023-03-01T08:23:42;2.58;;;2.38;;
6243;SDS011;3155;49.940;8.450;2023-03-01T08:26:11;1.75;;;1.30;;
6243;SDS011;3155;49.940;8.450;2023-03-01T08:28:48;4.50;;;1.45;;
6243;SDS011;3155;49.940;8.450;2023-03-01T08:31:32;1.40;;;1.30;;
6243;SDS011;3155;49.940;8.450;2023-03-01T08:34:05;1.58;;;1.48;;
6243;SDS011;3155;49.940;8.450;2023-03-01T08:36:41;4.97;;;2.63;;
6243;SDS011;3155;49.940;8.450;2023-03-01T08:39:13;3.10;;;2.33;;
6243;SDS011;3155;49.940;8.450;2023-03-01T08:41:42;3.90;;;2.30;;
6243;SDS011;3155;49.940;8.450;2023-03-01T08:44:12;1.83;;;1.70;;
6243;SDS011;3155;49.940;8.450;2023-03-01T08:46:45;2.05;;;1.83;;
6243;SDS011;3155;49.940;8.450;2023-03-01T08:49:16;4.10;;;2.25;;
6243;SDS011;3155;49.940;8.450;2023-03-01T08:51:44;3.33;;;1.70;;
6243;SDS011;3155;49.940;8.450;2023-03-01T08:54:13;2.20;;;2.00;;
6243;SDS011;3155;49.940;8.450;2023-03-01T08:56:41;2.80;;;2.30;;
6243;SDS011;3155;49.940;8.450;2023-03-01T08:59:09;2.42;;;2.13;;
6243;SDS011;3155;49.940;8.450;2023-03-01T09:01:39;2.75;;;1.50;;
6243;SDS011;3155;49.940;8.450;2023-03-01T09:04:10;3.97;;;2.50;;
6243;SDS011;3155;49.940;8.450;2023-03-01T09:06:38;2.97;;;2.05;;
6243;SDS011;3155;49.940;8.450;2023-03-01T09:09:04;4.25;;;2.53;;
6243;SDS011;3155;49.940;8.450;2023-03-01T09:11:32;3.70;;;2.47;;
6243;SDS011;3155;49.940;8.450;2023-03-01T09:13:59;6.63;;;2.58;;
6243;SDS011;3155;49.940;8.450;2023-03-01T09:16:26;2.92;;;2.25;;
6243;SDS011;3155;49.940;8.450;2023-03-01T09:18:53;3.75;;;2.58;;
6243;SDS011;3155;49.940;8.450;2023-03-01T09:21:22;2.78;;;1.60;;
6243;SDS011;3155;49.940;8.450;2023-03-01T09:24:05;2.03;;;1.90;;
6243;SDS011;3155;49.940;8.450;2023-03-01T09:26:40;4.97;;;3.28;;
6243;SDS011;3155;49.940;8.450;2023-03-01T09:29:07;2.92;;;2.40;;
6243;SDS011;3155;49.940;8.450;2023-03-01T09:31:38;3.60;;;2.40;;
6243;SDS011;3155;49.940;8.450;2023-03-01T09:34:05;3.92;;;2.85;;
6243;SDS011;3155;49.940;8.450;2023-03-01T09:36:32;3.13;;;2.55;;
6243;SDS011;3155;49.940;8.450;2023-03-01T09:39:00;4.45;;;2.30;;
6243;SDS011;3155;49.940;8.450;2023-03-01T09:44:25;4.00;;;2.90;;
6243;SDS011;3155;49.940;8.450;2023-03-01T09:46:58;5.43;;;2.33;;
6243;SDS011;3155;49.940;8.450;2023-03-01T09:49:30;3.42;;;2.63;;
6243;SDS011;3155;49.940;8.450;2023-03-01T09:54:56;2.90;;;2.58;;
6243;SDS011;3155;49.940;8.450;2023-03-01T09:57:28;2.22;;;1.88;;
6243;SDS011;3155;49.940;8.450;2023-03-01T10:00:26;2.90;;;2.40;;
6243;SDS011;3155;49.940;8.450;2023-03-01T10:05:47;3.72;;;2.38;;
6243;SDS011;3155;49.940;8.450;2023-03-01T10:08:28;3.13;;;2.88;;
6243;SDS011;3155;49.940;8.450;2023-03-01T10:10:57;5.15;;;2.60;;
6243;SDS011;3155;49.940;8.450;2023-03-01T10:16:01;2.42;;;2.05;;
6243;SDS011;3155;49.940;8.450;2023-03-01T10:18:39;2.38;;;2.17;;
6243;SDS011;3155;49.940;8.450;2023-03-01T10:21:14;2.47;;;2.28;;
6243;SDS011;3155;49.940;8.450;2023-03-01T10:23:47;2.75;;;2.25;;
6243;SDS011;3155;49.940;8.450;2023-03-01T10:29:19;2.15;;;1.83;;
6243;SDS011;3155;49.940;8.450;2023-03-01T10:31:51;3.97;;;2.58;;
6243;SDS011;3155;49.940;8.450;2023-03-01T10:34:33;4.05;;;2.58;;
6243;SDS011;3155;49.940;8.450;2023-03-01T10:37:22;2.58;;;2.30;;
6243;SDS011;3155;49.940;8.450;2023-03-01T10:42:47;5.65;;;2.63;;
6243;SDS011;3155;49.940;8.450;2023-03-01T10:48:03;2.80;;;1.85;;
6243;SDS011;3155;49.940;8.450;2023-03-01T10:50:32;4.27;;;2.30;;
6243;SDS011;3155;49.940;8.450;2023-03-01T10:53:02;3.15;;;2.38;;
6243;SDS011;3155;49.940;8.450;2023-03-01T11:03:16;3.75;;;3.00;;
6243;SDS011;3155;49.940;8.450;2023-03-01T11:08:46;4.53;;;3.10;;
6243;SDS011;3155;49.940;8.450;2023-03-01T11:14:17;4.57;;;2.40;;
6243;SDS011;3155;49.940;8.450;2023-03-01T11:17:28;7.37;;;3.13;;
6243;SDS011;3155;49.940;8.450;2023-03-01T11:22:47;3.50;;;2.75;;
6243;SDS011;3155;49.940;8.450;2023-03-01T11:25:23;2.97;;;2.67;;
6243;SDS011;3155;49.940;8.450;2023-03-01T11:27:53;4.07;;;2.72;;
6243;SDS011;3155;49.940;8.450;2023-03-01T11:33:03;3.60;;;2.30;;
6243;SDS011;3155;49.940;8.450;2023-03-01T11:35:42;3.65;;;2.90;;
6243;SDS011;3155;49.940;8.450;2023-03-01T11:38:20;3.53;;;2.63;;
6243;SDS011;3155;49.940;8.450;2023-03-01T11:51:31;3.20;;;2.55;;
6243;SDS011;3155;49.940;8.450;2023-03-01T11:57:22;4.10;;;3.00;;
6243;SDS011;3155;49.940;8.450;2023-03-01T12:06:00;4.25;;;2.67;;
6243;SDS011;3155;49.940;8.450;2023-03-01T12:08:36;4.82;;;2.97;;
6243;SDS011;3155;49.940;8.450;2023-03-01T12:11:13;4.95;;;3.00;;
6243;SDS011;3155;49.940;8.450;2023-03-01T12:14:08;5.80;;;3.53;;
6243;SDS011;3155;49.940;8.450;2023-03-01T12:19:33;5.18;;;2.53;;
6243;SDS011;3155;49.940;8.450;2023-03-01T12:22:10;3.28;;;2.42;;
6243;SDS011;3155;49.940;8.450;2023-03-01T12:33:15;4.85;;;2.85;;
6243;SDS011;3155;49.940;8.450;2023-03-01T12:41:46;3.58;;;2.58;;
6243;SDS011;3155;49.940;8.450;2023-03-01T12:47:12;2.25;;;2.05;;
6243;SDS011;3155;49.940;8.450;2023-03-01T12:50:20;2.38;;;2.17;;
6243;SDS011;3155;49.940;8.450;2023-03-01T12:55:32;2.05;;;1.85;;
6243;SDS011;3155;49.940;8.450;2023-03-01T13:04:12;4.68;;;1.85;;
6243;SDS011;3155;49.940;8.450;2023-03-01T13:06:47;2.13;;;1.95;;
6243;SDS011;3155;49.940;8.450;2023-03-01T13:17:56;4.03;;;1.97;;
6243;SDS011;3155;49.940;8.450;2023-03-01T13:20:34;4.35;;;1.88;;
6243;SDS011;3155;49.940;8.450;2023-03-01T13:31:26;3.97;;;1.55;;
6243;SDS011;3155;49.940;8.450;2023-03-01T13:34:03;2.80;;;2.22;;
6243;SDS011;3155;49.940;8.450;2023-03-01T13:39:04;2.13;;;1.90;;
6243;SDS011;3155;49.940;8.450;2023-03-01T13:41:50;5.95;;;1.88;;
6243;SDS011;3155;49.940;8.450;2023-03-01T13:49:48;2.30;;;1.83;;
6243;SDS011;3155;49.940;8.450;2023-03-01T13:52:37;3.90;;;1.77;;
6243;SDS011;3155;49.940;8.450;2023-03-01T13:55:17;2.50;;;2.00;;
6243;SDS011;3155;49.940;8.450;2023-03-01T13:57:53;3.40;;;2.03;;
6243;SDS011;3155;49.940;8.450;2023-03-01T14:03:03;3.03;;;2.10;;
6243;SDS011;3155;49.940;8.450;2023-03-01T14:05:42;2.92;;;2.22;;
6243;SDS011;3155;49.940;8.450;2023-03-01T14:08:41;5.37;;;2.40;;
6243;SDS011;3155;49.940;8.450;2023-03-01T14:19:36;2.55;;;1.80;;
6243;SDS011;3155;49.940;8.450;2023-03-01T14:24:50;3.22;;;2.38;;
6243;SDS011;3155;49.940;8.450;2023-03-01T14:27:19;1.77;;;1.60;;
6243;SDS011;3155;49.940;8.450;2023-03-01T14:29:57;2.83;;;2.03;;
6243;SDS011;3155;49.940;8.450;2023-03-01T14:32:30;4.00;;;2.07;;
6243;SDS011;3155;49.940;8.450;2023-03-01T14:34:59;2.53;;;2.05;;
6243;SDS011;3155;49.940;8.450;2023-03-01T14:37:27;3.90;;;1.80;;
6243;SDS011;3155;49.940;8.450;2023-03-01T14:39:59;1.75;;;1.55;;
6243;SDS011;3155;49.940;8.450;2023-03-01T14:42:29;1.48;;;1.38;;
6243;SDS011;3155;49.940;8.450;2023-03-01T14:45:00;1.75;;;1.63;;
6243;SDS011;3155;49.940;8.450;2023-03-01T14:47:29;1.90;;;1.80;;
6243;SDS011;3155;49.940;8.450;2023-03-01T14:50:04;2.57;;;1.80;;
6243;SDS011;3155;49.940;8.450;2023-03-01T14:52:35;4.90;;;2.30;;
6243;SDS011;3155;49.940;8.450;2023-03-01T14:55:07;2.85;;;1.95;;
6243;SDS011;3155;49.940;8.450;2023-03-01T14:58:03;3.08;;;1.95;;
6243;SDS011;3155;49.940;8.450;2023-03-01T15:00:32;1.83;;;1.27;;
6243;SDS011;3155;49.940;8.450;2023-03-01T15:03:01;2.60;;;2.17;;
6243;SDS011;3155;49.940;8.450;2023-03-01T15:05:40;2.75;;;1.77;;
6243;SDS011;3155;49.940;8.450;2023-03-01T15:08:15;3.30;;;1.80;;
6243;SDS011;3155;49.940;8.450;2023-03-01T15:10:55;2.08;;;1.92;;
6243;SDS011;3155;49.940;8.450;2023-03-01T15:13:35;4.50;;;2.37;;
6243;SDS011;3155;49.940;8.450;2023-03-01T15:16:12;2.25;;;2.10;;
6243;SDS011;3155;49.940;8.450;2023-03-01T15:18:49;2.45;;;1.60;;
6243;SDS011;3155;49.940;8.450;2023-03-01T15:23:50;2.95;;;2.15;;
6243;SDS011;3155;49.940;8.450;2023-03-01T15:26:51;3.45;;;1.75;;
6243;SDS011;3155;49.940;8.450;2023-03-01T15:29:27;1.73;;;1.63;;
6243;SDS011;3155;49.940;8.450;2023-03-01T15:32:00;3.70;;;1.88;;
6243;SDS011;3155;49.940;8.450;2023-03-01T15:34:38;1.80;;;1.70;;
6243;SDS011;3155;49.940;8.450;2023-03-01T15:37:06;3.37;;;2.03;;
6243;SDS011;3155;49.940;8.450;2023-03-01T15:40:00;3.17;;;1.95;;
6243;SDS011;3155;49.940;8.450;2023-03-01T15:47:36;3.85;;;1.88;;
6243;SDS011;3155;49.940;8.450;2023-03-01T15:50:14;3.33;;;1.73;;
6243;SDS011;3155;49.940;8.450;2023-03-01T15:52:44;2.90;;;1.98;;
6243;SDS011;3155;49.940;8.450;2023-03-01T15:55:18;2.53;;;1.80;;
6243;SDS011;3155;49.940;8.450;2023-03-01T15:57:47;3.28;;;2.05;;
6243;SDS011;3155;49.940;8.450;2023-03-01T16:00:15;1.52;;;1.42;;
6243;SDS011;3155;49.940;8.450;2023-03-01T16:02:43;2.83;;;1.33;;
6243;SDS011;3155;49.940;8.450;2023-03-01T16:05:18;1.50;;;0.93;;
6243;SDS011;3155;49.940;8.450;2023-03-01T16:07:57;2.38;;;1.63;;
6243;SDS011;3155;49.940;8.450;2023-03-01T16:10:24;1.75;;;1.65;;
6243;SDS011;3155;49.940;8.450;2023-03-01T16:12:51;1.15;;;1.02;;
6243;SDS011;3155;49.940;8.450;2023-03-01T16:15:20;2.00;;;1.80;;
6243;SDS011;3155;49.940;8.450;2023-03-01T16:17:48;8.67;;;2.33;;
6243;SDS011;3155;49.940;8.450;2023-03-01T16:20:15;1.65;;;1.50;;
6243;SDS011;3155;49.940;8.450;2023-03-01T16:22:53;1.30;;;1.07;;
6243;SDS011;3155;49.940;8.450;2023-03-01T16:25:20;3.78;;;1.60;;
6243;SDS011;3155;49.940;8.450;2023-03-01T16:27:49;1.55;;;1.45;;
6243;SDS011;3155;49.940;8.450;2023-03-01T16:30:17;2.33;;;1.73;;
6243;SDS011;3155;49.940;8.450;2023-03-01T16:32:46;3.80;;;1.73;;
6243;SDS011;3155;49.940;8.450;2023-03-01T16:35:26;1.63;;;1.52;;
6243;SDS011;3155;49.940;8.450;2023-03-01T16:37:53;3.15;;;1.90;;
6243;SDS011;3155;49.940;8.450;2023-03-01T16:40:28;2.15;;;1.90;;
6243;SDS011;3155;49.940;8.450;2023-03-01T16:42:56;6.82;;;1.65;;
6243;SDS011;3155;49.940;8.450;2023-03-01T16:45:35;2.92;;;1.58;;
6243;SDS011;3155;49.940;8.450;2023-03-01T16:48:02;1.47;;;1.37;;
6243;SDS011;3155;49.940;8.450;2023-03-01T16:50:29;1.70;;;1.58;;
6243;SDS011;3155;49.940;8.450;2023-03-01T16:52:56;2.83;;;1.85;;
6243;SDS011;3155;49.940;8.450;2023-03-01T16:55:23;2.33;;;1.55;;
6243;SDS011;3155;49.940;8.450;2023-03-01T16:57:52;2.55;;;1.75;;
6243;SDS011;3155;49.940;8.450;2023-03-01T17:00:19;1.63;;;1.63;;
6243;SDS011;3155;49.940;8.450;2023-03-01T17:02:46;1.93;;;1.63;;
6243;SDS011;3155;49.940;8.450;2023-03-01T17:05:13;2.60;;;2.08;;
6243;SDS011;3155;49.940;8.450;2023-03-01T17:07:40;1.90;;;1.70;;
6243;SDS011;3155;49.940;8.450;2023-03-01T17:10:09;1.45;;;1.33;;
6243;SDS011;3155;49.940;8.450;2023-03-01T17:12:37;0.88;;;0.88;;
6243;SDS011;3155;49.940;8.450;2023-03-01T17:15:05;1.67;;;1.58;;
6243;SDS011;3155;49.940;8.450;2023-03-01T17:17:35;2.30;;;1.70;;
6243;SDS011;3155;49.940;8.450;2023-03-01T17:20:08;1.33;;;1.30;;
6243;SDS011;3155;49.940;8.450;2023-03-01T17:22:35;5.63;;;1.88;;
6243;SDS011;3155;49.940;8.450;2023-03-01T17:25:03;2.40;;;1.58;;
6243;SDS011;3155;49.940;8.450;2023-03-01T17:27:30;2.28;;;1.88;;
6243;SDS011;3155;49.940;8.450;2023-03-01T17:30:00;1.42;;;1.33;;
6243;SDS011;3155;49.940;8.450;2023-03-01T17:32:27;2.50;;;1.48;;
6243;SDS011;3155;49.940;8.450;2023-03-01T17:34:54;1.55;;;1.45;;
6243;SDS011;3155;49.940;8.450;2023-03-01T17:37:21;3.38;;;1.65;;
6243;SDS011;3155;49.940;8.450;2023-03-01T17:39:48;1.52;;;1.42;;
6243;SDS011;3155;49.940;8.450;2023-03-01T17:42:15;1.27;;;1.17;;
6243;SDS011;3155;49.940;8.450;2023-03-01T17:44:42;2.20;;;1.38;;
6243;SDS011;3155;49.940;8.450;2023-03-01T17:47:09;1.80;;;1.70;;
6243;SDS011;3155;49.940;8.450;2023-03-01T17:49:36;3.17;;;1.93;;
6243;SDS011;3155;49.940;8.450;2023-03-01T17:52:03;1.30;;;1.20;;
6243;SDS011;3155;49.940;8.450;2023-03-01T17:54:30;3.40;;;2.13;;
6243;SDS011;3155;49.940;8.450;2023-03-01T17:56:58;2.08;;;1.83;;
6243;SDS011;3155;49.940;8.450;2023-03-01T17:59:25;1.77;;;1.30;;
6243;SDS011;3155;49.940;8.450;2023-03-01T18:02:00;1.65;;;1.55;;
6243;SDS011;3155;49.940;8.450;2023-03-01T18:04:28;1.90;;;1.70;;